Time;durP1;ratioP1;P1;durP2;ratioP2;P2;SDS_P1;SDS_P2;PMS_P1;PMS_P2;Temp;Humidity;BMP_temperature;BMP_pressure;BME280_temperature;BME280_humidity;BME280_pressure;Samples;Min_cycle;Max_cycle;Signal;HPM_P1;HPM_P2
2023/04/27 00:00:10;;;;;;;6.43;4.23;;;;;;;4.13;100.00;101121.00;688852;28;834;-64
2023/04/27 00:00:30;;;;;;;6.55;4.10;;;;;;;4.12;100.00;101119.22;688866;28;4462;-64
2023/04/27 00:00:50;;;;;;;6.13;4.05;;;;;;;4.12;100.00;101117.50;687694;28;1502;-64
2023/04/27 00:01:12;;;;;;;7.23;4.50;;;;;;;4.12;100.00;101119.22;689256;28;1326;-64
2023/04/27 00:01:33;;;;;;;7.35;4.18;;;;;;;4.12;100.00;101120.09;687096;28;850;-64
2023/04/27 00:01:53;;;;;;;7.45;4.18;;;;;;;4.11;100.00;101127.81;685902;28;1456;-64
2023/04/27 00:02:14;;;;;;;8.10;4.53;;;;;;;4.07;100.00;101122.56;690064;28;1349;-64
2023/04/27 00:02:36;;;;;;;7.90;4.40;;;;;;;4.06;100.00;101127.69;689630;28;929;-63
2023/04/27 00:02:56;;;;;;;7.70;4.70;;;;;;;4.05;100.00;101129.38;690164;28;1634;-64
2023/04/27 00:03:17;;;;;;;7.47;4.43;;;;;;;4.03;100.00;101123.28;691536;28;924;-62
2023/04/27 00:03:38;;;;;;;7.97;4.22;;;;;;;4.00;100.00;101120.63;690800;28;4341;-64
2023/04/27 00:04:03;;;;;;;6.82;4.38;;;;;;;3.99;100.00;101129.22;689428;28;1572;-64
2023/04/27 00:04:23;;;;;;;7.40;4.15;;;;;;;4.01;100.00;101126.66;690421;28;1104;-64
2023/04/27 00:04:44;;;;;;;6.53;4.15;;;;;;;4.01;100.00;101127.53;691558;28;936;-64
2023/04/27 00:05:05;;;;;;;7.17;4.20;;;;;;;4.01;100.00;101124.09;688490;28;1845;-63
2023/04/27 00:05:25;;;;;;;6.93;4.22;;;;;;;4.01;100.00;101126.66;686131;28;947;-64
2023/04/27 00:05:46;;;;;;;6.80;4.10;;;;;;;4.00;100.00;101122.31;686167;28;1162;-64
2023/04/27 00:06:09;;;;;;;7.40;4.28;;;;;;;4.00;100.00;101130.06;684924;28;1287;-64
2023/04/27 00:06:31;;;;;;;7.22;4.10;;;;;;;3.99;100.00;101124.03;685370;28;4383;-64
2023/04/27 00:06:51;;;;;;;7.22;4.10;;;;;;;3.98;100.00;101126.59;686978;28;1826;-64
2023/04/27 00:07:12;;;;;;;6.97;4.05;;;;;;;3.98;100.00;101127.44;690688;28;947;-64
2023/04/27 00:07:32;;;;;;;6.63;4.30;;;;;;;3.99;100.00;101128.31;691225;28;765;-64
2023/04/27 00:07:52;;;;;;;7.95;4.45;;;;;;;3.97;100.00;101128.28;692040;28;1492;-64
2023/04/27 00:08:13;;;;;;;6.63;4.10;;;;;;;3.97;100.00;101124.81;691362;28;749;-64
2023/04/27 00:08:33;;;;;;;7.00;4.28;;;;;;;3.96;100.00;101129.13;691993;28;920;-64
2023/04/27 00:08:54;;;;;;;7.67;4.33;;;;;;;3.96;100.00;101120.47;690900;28;1579;-64
2023/04/27 00:09:14;;;;;;;8.00;4.30;;;;;;;3.95;100.00;101126.50;690842;28;1412;-64
2023/04/27 00:09:35;;;;;;;7.70;4.13;;;;;;;3.91;100.00;101121.22;689649;28;4302;-64
2023/04/27 00:09:55;;;;;;;6.50;4.05;;;;;;;3.94;100.00;101129.91;685737;28;1483;-64
2023/04/27 00:10:15;;;;;;;7.30;4.20;;;;;;;3.91;100.00;101126.38;686603;28;896;-64
2023/04/27 00:10:36;;;;;;;7.13;4.40;;;;;;;3.90;100.00;101129.81;687747;28;853;-64
2023/04/27 00:10:56;;;;;;;7.20;4.03;;;;;;;3.90;100.00;101128.94;686460;28;1617;-64
2023/04/27 00:11:17;;;;;;;7.68;4.47;;;;;;;3.90;100.00;101124.66;683163;28;1914;-64
2023/04/27 00:11:37;;;;;;;7.47;4.07;;;;;;;3.88;100.00;101133.19;680161;28;933;-63
2023/04/27 00:11:58;;;;;;;7.72;4.10;;;;;;;3.86;100.00;101127.09;684745;28;1518;-64
2023/04/27 00:12:18;;;;;;;6.90;4.10;;;;;;;3.88;100.00;101123.72;685605;28;3200;-63
2023/04/27 00:12:40;;;;;;;6.82;4.18;;;;;;;3.90;100.00;101128.94;681528;28;4394;-63
2023/04/27 00:13:01;;;;;;;6.35;3.90;;;;;;;3.90;100.00;101131.53;682429;28;1478;-64
2023/04/27 00:13:21;;;;;;;6.87;4.27;;;;;;;3.87;100.00;101134.88;686023;28;1497;-63
2023/04/27 00:13:45;;;;;;;6.93;4.30;;;;;;;3.85;100.00;101130.50;688235;28;943;-63
2023/04/27 00:14:05;;;;;;;6.93;4.43;;;;;;;3.87;100.00;101126.25;686348;28;1735;-64
2023/04/27 00:14:27;;;;;;;6.68;4.43;;;;;;;3.85;100.00;101127.91;688495;28;1099;-64
2023/04/27 00:14:47;;;;;;;7.00;4.10;;;;;;;3.86;100.00;101132.25;687729;28;1582;-64
2023/04/27 00:15:08;;;;;;;6.33;4.30;;;;;;;3.87;100.00;101123.66;689375;28;1029;-64
2023/04/27 00:15:29;;;;;;;7.95;4.20;;;;;;;3.87;100.00;101124.53;686785;28;4311;-64
2023/04/27 00:15:50;;;;;;;9.18;4.38;;;;;;;3.89;100.00;101122.00;686646;28;1498;-63
2023/04/27 00:16:10;;;;;;;11.77;4.50;;;;;;;3.86;100.00;101127.09;689973;28;1051;-64
2023/04/27 00:16:30;;;;;;;11.33;4.50;;;;;;;3.85;100.00;101121.03;689355;28;792;-63
2023/04/27 00:16:51;;;;;;;6.80;4.25;;;;;;;3.87;100.00;101121.94;686646;28;1552;-64
2023/04/27 00:17:13;;;;;;;6.27;4.00;;;;;;;3.87;100.00;101123.66;689425;28;884;-64
2023/04/27 00:17:34;;;;;;;6.28;3.92;;;;;;;3.83;100.00;101127.00;692018;28;936;-63
2023/04/27 00:17:56;;;;;;;8.38;4.53;;;;;;;3.80;100.00;101121.75;689864;28;1721;-64
2023/04/27 00:18:16;;;;;;;7.13;4.65;;;;;;;3.81;100.00;101120.88;690900;28;1200;-63
2023/04/27 00:18:37;;;;;;;7.18;4.57;;;;;;;3.83;100.00;101127.00;689567;28;4451;-64
2023/04/27 00:18:57;;;;;;;7.07;4.60;;;;;;;3.83;100.00;101120.09;690606;28;1816;-63
2023/04/27 00:19:21;;;;;;;7.60;4.30;;;;;;;3.84;100.00;101124.44;692392;28;912;-64
2023/04/27 00:19:42;;;;;;;7.50;4.30;;;;;;;3.83;100.00;101125.28;687805;28;1171;-64
2023/04/27 00:20:04;;;;;;;7.83;4.10;;;;;;;3.81;100.00;101126.06;687468;28;1601;-63
2023/04/27 00:20:24;;;;;;;8.18;4.13;;;;;;;3.80;100.00;101126.91;685403;28;830;-63
2023/04/27 00:20:45;;;;;;;8.87;4.27;;;;;;;3.80;100.00;101122.59;685410;28;1612;-64
2023/04/27 00:21:07;;;;;;;7.07;3.90;;;;;;;3.79;100.00;101126.00;685678;28;1584;-63
2023/04/27 00:21:28;;;;;;;8.20;4.13;;;;;;;3.81;100.00;101121.78;685580;28;4484;-64
2023/04/27 00:21:48;;;;;;;8.77;4.18;;;;;;;3.80;100.00;101124.31;687794;28;2118;-63
2023/04/27 00:22:08;;;;;;;7.53;3.97;;;;;;;3.78;100.00;101116.53;687620;28;1215;-64
2023/04/27 00:22:29;;;;;;;7.00;4.15;;;;;;;3.79;100.00;101126.00;687823;28;1004;-63
2023/04/27 00:22:49;;;;;;;6.53;4.10;;;;;;;3.77;100.00;101126.78;687081;28;991;-64
2023/04/27 00:23:10;;;;;;;7.50;4.33;;;;;;;3.78;100.00;101129.47;686973;28;1048;-63
2023/04/27 00:23:30;;;;;;;8.35;4.57;;;;;;;3.76;100.00;101120.75;689464;28;1021;-63
2023/04/27 00:23:50;;;;;;;9.23;4.47;;;;;;;3.75;100.00;101122.47;687608;28;5362;-63
2023/04/27 00:24:11;;;;;;;8.45;4.35;;;;;;;3.73;100.00;101125.84;689279;28;877;-64
2023/04/27 00:24:31;;;;;;;8.77;4.07;;;;;;;3.72;100.00;101121.50;688141;28;4279;-63
2023/04/27 00:24:51;;;;;;;8.07;4.30;;;;;;;3.69;100.00;101117.09;690311;28;1567;-63
2023/04/27 00:25:12;;;;;;;7.73;4.47;;;;;;;3.68;100.00;101114.47;692069;28;1054;-64
2023/04/27 00:25:32;;;;;;;7.57;4.10;;;;;;;3.69;100.00;101124.84;688200;28;1378;-64
2023/04/27 00:25:52;;;;;;;6.60;3.97;;;;;;;3.68;100.00;101124.81;687465;28;1787;-63
2023/04/27 00:26:13;;;;;;;8.00;4.20;;;;;;;3.66;100.00;101126.50;688792;28;885;-63
2023/04/27 00:26:35;;;;;;;7.65;4.30;;;;;;;3.64;100.00;101123.88;688407;28;1381;-63
2023/04/27 00:26:56;;;;;;;7.73;4.27;;;;;;;3.65;100.00;101122.13;686689;28;1598;-63
2023/04/27 00:27:19;;;;;;;7.30;4.35;;;;;;;3.65;100.00;101123.00;687167;28;951;-63
2023/04/27 00:27:40;;;;;;;8.48;4.63;;;;;;;3.66;100.00;101129.94;688231;28;4488;-64
2023/04/27 00:28:00;;;;;;;7.38;4.47;;;;;;;3.65;100.00;101128.19;685272;28;1527;-63
2023/04/27 00:28:21;;;;;;;7.13;4.40;;;;;;;3.66;100.00;101126.50;685292;28;1174;-64
2023/04/27 00:28:41;;;;;;;6.73;4.40;;;;;;;3.66;100.00;101124.78;683490;28;1402;-63
2023/04/27 00:29:01;;;;;;;7.07;4.30;;;;;;;3.67;100.00;101128.22;685793;28;900;-63
2023/04/27 00:29:22;;;;;;;7.18;4.10;;;;;;;3.67;100.00;101123.94;683171;28;1685;-63
2023/04/27 00:29:42;;;;;;;8.87;4.47;;;;;;;3.67;100.00;101126.53;681783;28;1117;-64
2023/04/27 00:30:03;;;;;;;8.52;4.22;;;;;;;3.69;100.00;101124.00;683379;28;1619;-63
2023/04/27 00:30:24;;;;;;;8.20;4.40;;;;;;;3.69;100.00;101132.63;684554;28;1612;-63
2023/04/27 00:30:44;;;;;;;7.63;4.30;;;;;;;3.68;100.00;101127.41;684371;28;4432;-63
2023/04/27 00:31:05;;;;;;;7.93;4.30;;;;;;;3.66;100.00;101124.78;683902;28;1492;-63
2023/04/27 00:31:25;;;;;;;7.00;4.30;;;;;;;3.67;100.00;101125.63;687825;28;2025;-63
2023/04/27 00:31:46;;;;;;;7.10;4.37;;;;;;;3.68;100.00;101128.31;686078;28;1141;-64
2023/04/27 00:32:06;;;;;;;8.40;4.87;;;;;;;3.68;100.00;101123.13;684613;28;1676;-63
2023/04/27 00:32:27;;;;;;;8.13;4.40;;;;;;;3.68;100.00;101130.88;685851;28;1230;-63
2023/04/27 00:32:47;;;;;;;7.68;4.43;;;;;;;3.68;100.00;101133.47;683089;28;1620;-64
2023/04/27 00:33:10;;;;;;;7.80;4.20;;;;;;;3.68;100.00;101128.31;682827;28;1415;-64
2023/04/27 00:33:30;;;;;;;7.60;4.60;;;;;;;3.69;100.00;101124.00;682795;28;4427;-64
2023/04/27 00:33:51;;;;;;;7.03;4.37;;;;;;;3.69;100.00;101126.56;682088;28;1498;-63
2023/04/27 00:34:11;;;;;;;7.93;4.50;;;;;;;3.67;100.00;101131.72;682679;28;1285;-63
2023/04/27 00:34:32;;;;;;;7.82;4.53;;;;;;;3.70;100.00;101125.75;684201;28;869;-63
2023/04/27 00:34:55;;;;;;;6.25;3.80;;;;;;;3.69;100.00;101127.44;681434;28;1550;-63
2023/04/27 00:35:15;;;;;;;7.80;4.22;;;;;;;3.66;100.00;101129.06;685233;28;1168;-63
2023/04/27 00:35:36;;;;;;;7.70;4.38;;;;;;;3.61;100.00;101125.47;687185;28;1407;-63
2023/04/27 00:36:00;;;;;;;7.90;4.30;;;;;;;3.61;100.00;101131.50;687378;28;1513;-63
2023/04/27 00:36:20;;;;;;;8.60;4.68;;;;;;;3.62;100.00;101132.41;684351;28;1117;-64
2023/04/27 00:36:41;;;;;;;8.00;4.55;;;;;;;3.63;100.00;101126.38;682076;28;4409;-64
2023/04/27 00:37:03;;;;;;;8.20;4.63;;;;;;;3.61;100.00;101125.47;684685;28;1577;-62
2023/04/27 00:37:23;;;;;;;7.75;4.72;;;;;;;3.62;100.00;101132.41;684172;28;833;-63
2023/04/27 00:37:44;;;;;;;7.38;4.80;;;;;;;3.63;100.00;101127.28;685447;28;885;-63
2023/04/27 00:38:04;;;;;;;7.37;4.67;;;;;;;3.64;100.00;101133.31;685446;28;1043;-63
2023/04/27 00:38:24;;;;;;;7.17;4.17;;;;;;;3.65;100.00;101128.19;689148;28;901;-63
2023/04/27 00:38:45;;;;;;;6.67;4.03;;;;;;;3.65;100.00;101130.75;692063;28;1306;-63
2023/04/27 00:39:05;;;;;;;6.20;4.10;;;;;;;3.64;100.00;101131.63;689238;28;1776;-63
2023/04/27 00:39:26;;;;;;;6.63;4.13;;;;;;;3.62;100.00;101133.25;687895;28;4344;-63
2023/04/27 00:39:47;;;;;;;8.27;4.43;;;;;;;3.56;100.00;101127.91;687528;28;1627;-64
2023/04/27 00:40:08;;;;;;;9.43;4.60;;;;;;;3.56;100.00;101126.19;682615;28;1537;-63
2023/04/27 00:40:28;;;;;;;6.57;4.53;;;;;;;3.56;100.00;101133.09;681264;28;1206;-64
2023/04/27 00:40:49;;;;;;;8.82;4.57;;;;;;;3.57;100.00;101132.22;683936;28;1636;-63
2023/04/27 00:41:09;;;;;;;8.27;4.23;;;;;;;3.55;100.00;101132.19;684278;28;1309;-64
2023/04/27 00:41:30;;;;;;;8.13;4.47;;;;;;;3.56;100.00;101130.50;682489;28;1687;-64
2023/04/27 00:41:50;;;;;;;6.90;4.30;;;;;;;3.54;100.00;101124.38;682209;28;1563;-64
2023/04/27 00:42:14;;;;;;;8.00;4.47;;;;;;;3.54;100.00;101129.56;683168;28;962;-64
2023/04/27 00:42:36;;;;;;;6.65;4.30;;;;;;;3.55;100.00;101131.31;687577;28;4386;-63
2023/04/27 00:42:58;;;;;;;7.63;4.68;;;;;;;3.55;100.00;101129.59;682036;28;1013;-62
2023/04/27 00:43:19;;;;;;;8.10;4.60;;;;;;;3.56;100.00;101123.63;681592;28;1492;-64
2023/04/27 00:43:44;;;;;;;7.53;4.32;;;;;;;3.56;100.00;101128.78;679996;29;1237;-63
2023/04/27 00:44:05;;;;;;;8.27;4.30;;;;;;;3.56;100.00;101133.09;676453;29;1683;-64
2023/04/27 00:44:26;;;;;;;7.80;4.18;;;;;;;3.57;100.00;101134.81;675411;29;1579;-63
2023/04/27 00:44:46;;;;;;;8.05;4.43;;;;;;;3.58;100.00;101136.59;681161;29;1092;-63
2023/04/27 00:45:07;;;;;;;8.57;4.70;;;;;;;3.58;100.00;101131.41;682088;28;1711;-64
2023/04/27 00:45:28;;;;;;;8.45;4.88;;;;;;;3.60;100.00;101137.53;685278;28;4369;-64
2023/04/27 00:45:48;;;;;;;8.23;4.82;;;;;;;3.61;100.00;101139.25;686626;28;1561;-64
2023/04/27 00:46:09;;;;;;;7.43;4.50;;;;;;;3.61;100.00;101131.50;690227;28;912;-63
2023/04/27 00:46:30;;;;;;;7.53;4.15;;;;;;;3.63;100.00;101131.53;687232;28;826;-63
2023/04/27 00:46:52;;;;;;;7.28;4.20;;;;;;;3.65;100.00;101135.06;689737;28;1545;-63
2023/04/27 00:47:16;;;;;;;7.38;4.40;;;;;;;3.62;100.00;101132.41;689670;28;1372;-63
2023/04/27 00:47:36;;;;;;;7.57;4.40;;;;;;;3.63;100.00;101137.63;682551;28;956;-64
2023/04/27 00:47:58;;;;;;;7.93;4.30;;;;;;;3.64;100.00;101131.63;683567;28;1773;-64
2023/04/27 00:48:18;;;;;;;7.03;4.13;;;;;;;3.63;100.00;101131.53;685361;28;1256;-64
2023/04/27 00:48:39;;;;;;;7.60;4.28;;;;;;;3.62;100.00;101133.25;682037;28;4418;-64
2023/04/27 00:49:00;;;;;;;8.27;4.55;;;;;;;3.64;100.00;101134.22;680084;28;1519;-63
2023/04/27 00:49:21;;;;;;;7.05;4.32;;;;;;;3.65;100.00;101135.06;683142;28;1989;-63
2023/04/27 00:49:41;;;;;;;7.80;4.45;;;;;;;3.66;100.00;101129.94;685426;28;822;-64
2023/04/27 00:50:02;;;;;;;7.63;4.43;;;;;;;3.68;100.00;101137.75;684325;28;1109;-63
2023/04/27 00:50:30;;;;;;;7.28;5.07;;;;;;;3.66;100.00;101137.69;687951;28;992;-63
2023/04/27 00:50:51;;;;;;;7.47;4.50;;;;;;;3.67;100.00;101126.53;687709;28;1521;-63
2023/04/27 00:51:12;;;;;;;6.93;4.60;;;;;;;3.67;100.00;101136.88;686670;28;1911;-64
2023/04/27 00:51:32;;;;;;;7.55;4.72;;;;;;;3.69;100.00;101134.34;688042;28;4412;-63
2023/04/27 00:51:53;;;;;;;7.40;4.50;;;;;;;3.69;100.00;101139.50;688447;28;1680;-63
2023/04/27 00:52:17;;;;;;;7.20;4.05;;;;;;;3.70;100.00;101136.09;682898;28;1475;-64
2023/04/27 00:52:38;;;;;;;7.60;4.50;;;;;;;3.73;100.00;101141.34;682856;28;988;-64
2023/04/27 00:53:00;;;;;;;8.05;4.93;;;;;;;3.73;100.00;101137.06;681389;28;1825;-63
2023/04/27 00:53:21;;;;;;;7.75;4.65;;;;;;;3.68;100.00;101138.63;682118;28;1236;-63
2023/04/27 00:53:43;;;;;;;7.80;4.57;;;;;;;3.66;100.00;101132.53;684637;28;1281;-63
2023/04/27 00:54:06;;;;;;;7.57;4.23;;;;;;;3.67;100.00;101142.06;684664;28;1889;-64
2023/04/27 00:54:27;;;;;;;8.15;4.53;;;;;;;3.65;100.00;101138.53;687605;28;4290;-64
2023/04/27 00:54:50;;;;;;;8.33;4.57;;;;;;;3.65;100.00;101137.66;688909;28;1195;-64
2023/04/27 00:55:10;;;;;;;8.07;4.57;;;;;;;3.65;100.00;101138.53;688469;28;888;-63
2023/04/27 00:55:32;;;;;;;7.45;4.50;;;;;;;3.67;100.00;101134.28;690680;28;1302;-64
2023/04/27 00:55:54;;;;;;;7.97;4.60;;;;;;;3.68;100.00;101138.63;690219;28;1498;-63
2023/04/27 00:56:16;;;;;;;7.07;4.40;;;;;;;3.68;100.00;101136.06;691354;28;806;-63
2023/04/27 00:56:36;;;;;;;7.75;4.75;;;;;;;3.65;100.00;101138.53;690337;28;1896;-63
2023/04/27 00:56:58;;;;;;;7.50;4.53;;;;;;;3.65;100.00;101137.66;690557;28;1519;-64
2023/04/27 00:57:18;;;;;;;8.80;5.00;;;;;;;3.65;100.00;101137.66;688679;28;915;-64
2023/04/27 00:57:39;;;;;;;7.35;4.60;;;;;;;3.65;100.00;101133.34;688576;28;4798;-63
2023/04/27 00:57:59;;;;;;;7.67;4.43;;;;;;;3.64;100.00;101136.78;685250;28;1506;-64
2023/04/27 00:58:20;;;;;;;8.57;4.47;;;;;;;3.65;100.00;101141.09;689097;28;896;-63
2023/04/27 00:58:40;;;;;;;8.50;5.10;;;;;;;3.64;100.00;101136.78;687980;28;896;-64
2023/04/27 00:59:01;;;;;;;7.95;4.78;;;;;;;3.63;100.00;101137.63;687563;28;1624;-64
2023/04/27 00:59:21;;;;;;;8.50;4.67;;;;;;;3.64;100.00;101133.31;689479;28;976;-64
2023/04/27 00:59:41;;;;;;;7.60;4.70;;;;;;;3.65;100.00;101137.66;688844;28;1259;-64
2023/04/27 01:00:05;;;;;;;6.93;4.63;;;;;;;3.64;100.00;101131.63;684010;28;1448;-64
2023/04/27 01:00:26;;;;;;;7.72;4.60;;;;;;;3.62;100.00;101128.09;682316;28;4530;-64
2023/04/27 01:00:47;;;;;;;7.93;4.65;;;;;;;3.62;100.00;101130.69;687510;28;1103;-64
2023/04/27 01:01:09;;;;;;;7.60;4.60;;;;;;;3.63;100.00;101129.84;685616;28;1451;-64
2023/04/27 01:01:30;;;;;;;8.73;5.15;;;;;;;3.63;100.00;101132.44;683426;28;1052;-64
2023/04/27 01:01:52;;;;;;;8.27;4.80;;;;;;;3.61;100.00;101136.66;689247;28;1593;-64
2023/04/27 01:02:12;;;;;;;7.53;4.47;;;;;;;3.57;100.00;101125.38;690101;28;1322;-64
2023/04/27 01:02:34;;;;;;;8.93;4.47;;;;;;;3.55;100.00;101128.75;690761;28;1023;-64
2023/04/27 01:02:55;;;;;;;7.68;4.50;;;;;;;3.54;100.00;101130.44;683335;28;2024;-64
2023/04/27 01:03:16;;;;;;;8.20;4.78;;;;;;;3.54;100.00;101129.56;681089;29;1186;-64
2023/04/27 01:03:37;;;;;;;7.57;4.95;;;;;;;3.55;100.00;101129.59;685607;28;4659;-64
2023/04/27 01:04:01;;;;;;;7.38;4.55;;;;;;;3.55;100.00;101131.31;683892;28;1509;-63
2023/04/27 01:04:23;;;;;;;8.80;4.53;;;;;;;3.57;100.00;101130.53;686831;28;1399;-64
2023/04/27 01:04:45;;;;;;;7.60;4.35;;;;;;;3.57;100.00;101127.06;688620;28;1272;-64
2023/04/27 01:05:07;;;;;;;7.53;4.70;;;;;;;3.54;100.00;101135.59;690418;28;1031;-64
2023/04/27 01:05:28;;;;;;;7.53;4.70;;;;;;;3.53;100.00;101126.09;691807;28;861;-64
2023/04/27 01:05:48;;;;;;;8.03;4.37;;;;;;;3.50;100.00;101133.78;689029;28;951;-64
2023/04/27 01:06:09;;;;;;;9.95;4.38;;;;;;;3.51;100.00;101134.63;692047;28;1132;-64
2023/04/27 01:06:30;;;;;;;7.35;4.30;;;;;;;3.50;100.00;101133.78;692225;28;4478;-64
2023/04/27 01:06:51;;;;;;;7.53;4.25;;;;;;;3.50;100.00;101135.47;688330;28;1982;-64
2023/04/27 01:07:11;;;;;;;7.78;4.60;;;;;;;3.50;100.00;101138.94;686661;28;877;-64
2023/04/27 01:07:32;;;;;;;7.70;4.47;;;;;;;3.52;100.00;101136.41;689833;28;923;-64
2023/04/27 01:07:52;;;;;;;7.60;5.00;;;;;;;3.52;100.00;101137.28;688221;28;1592;-64
2023/04/27 01:08:13;;;;;;;8.85;4.88;;;;;;;3.52;100.00;101131.22;684307;28;1321;-64
2023/04/27 01:08:34;;;;;;;7.63;4.50;;;;;;;3.51;100.00;101135.50;685994;28;3280;-64
2023/04/27 01:08:55;;;;;;;7.55;4.40;;;;;;;3.52;100.00;101132.09;681459;28;1559;-64
2023/04/27 01:09:18;;;;;;;7.60;4.60;;;;;;;3.51;100.00;101135.50;684556;28;1248;-64
2023/04/27 01:09:39;;;;;;;6.72;4.18;;;;;;;3.51;100.00;101134.63;683698;28;4326;-64
2023/04/27 01:10:00;;;;;;;7.13;4.63;;;;;;;3.50;100.00;101133.78;684074;28;1639;-63
2023/04/27 01:10:20;;;;;;;7.50;4.77;;;;;;;3.50;100.00;101128.59;686279;28;1544;-63
2023/04/27 01:10:41;;;;;;;6.60;4.32;;;;;;;3.50;100.00;101132.88;685191;28;1247;-64
2023/04/27 01:11:04;;;;;;;6.57;4.50;;;;;;;3.50;100.00;101138.03;681233;28;1489;-64
2023/04/27 01:11:25;;;;;;;7.82;4.65;;;;;;;3.47;100.00;101135.38;681940;29;1934;-64
2023/04/27 01:11:46;;;;;;;8.73;4.65;;;;;;;3.47;100.00;101133.66;682287;29;850;-64
2023/04/27 01:12:07;;;;;;;7.65;4.90;;;;;;;3.48;100.00;101129.38;681251;28;1488;-63
2023/04/27 01:12:27;;;;;;;7.53;4.88;;;;;;;3.48;100.00;101134.56;682555;28;4575;-63
2023/04/27 01:12:47;;;;;;;8.53;5.00;;;;;;;3.48;100.00;101135.41;684621;28;1287;-63
2023/04/27 01:13:08;;;;;;;9.25;4.90;;;;;;;3.48;100.00;101139.72;683569;28;1553;-64
2023/04/27 01:13:28;;;;;;;7.47;4.50;;;;;;;3.48;100.00;101134.56;682484;29;832;-64
2023/04/27 01:13:49;;;;;;;8.65;5.18;;;;;;;3.49;100.00;101133.69;683612;28;1875;-64
2023/04/27 01:14:10;;;;;;;8.77;4.88;;;;;;;3.49;100.00;101126.84;690478;28;1297;-63
2023/04/27 01:14:30;;;;;;;8.17;4.63;;;;;;;3.48;100.00;101127.66;689322;28;1262;-63
2023/04/27 01:14:51;;;;;;;8.55;4.70;;;;;;;3.50;100.00;101135.47;686833;28;1550;-64
2023/04/27 01:15:11;;;;;;;8.17;4.67;;;;;;;3.50;100.00;101128.59;688998;28;908;-63
2023/04/27 01:15:32;;;;;;;7.97;4.80;;;;;;;3.51;100.00;101132.06;687311;28;4275;-63
2023/04/27 01:15:53;;;;;;;9.33;4.87;;;;;;;3.50;100.00;101132.88;683719;28;1529;-63
2023/04/27 01:16:15;;;;;;;8.17;4.60;;;;;;;3.51;100.00;101129.47;684926;28;969;-63
2023/04/27 01:16:36;;;;;;;7.50;4.70;;;;;;;3.51;100.00;101127.75;688372;28;955;-63
2023/04/27 01:16:57;;;;;;;8.32;4.75;;;;;;;3.51;100.00;101125.16;688102;28;1489;-63
2023/04/27 01:17:17;;;;;;;9.20;5.03;;;;;;;3.51;100.00;101134.63;684975;28;883;-63
2023/04/27 01:17:37;;;;;;;8.50;4.82;;;;;;;3.51;100.00;101124.31;687191;28;979;-63
2023/04/27 01:18:00;;;;;;;9.30;4.77;;;;;;;3.52;100.00;101126.06;682841;28;1756;-63
2023/04/27 01:18:22;;;;;;;7.80;4.60;;;;;;;3.53;100.00;101127.78;678338;29;1245;-63
2023/04/27 01:18:44;;;;;;;7.43;4.43;;;;;;;3.52;100.00;101126.94;679853;29;4284;-63
2023/04/27 01:19:06;;;;;;;7.10;4.40;;;;;;;3.50;100.00;101127.69;680120;28;1522;-63
2023/04/27 01:19:27;;;;;;;7.18;4.55;;;;;;;3.48;100.00;101127.66;681878;28;1259;-63
2023/04/27 01:19:48;;;;;;;7.18;4.53;;;;;;;3.46;100.00;101134.50;684605;28;1199;-63
2023/04/27 01:20:10;;;;;;;9.77;4.80;;;;;;;3.45;100.00;101126.66;686090;28;923;-63
2023/04/27 01:20:31;;;;;;;9.77;4.65;;;;;;;3.47;100.00;101130.19;689350;28;1299;-62
2023/04/27 01:20:52;;;;;;;8.57;5.00;;;;;;;3.47;100.00;101130.19;684522;28;1535;-62
2023/04/27 01:21:12;;;;;;;7.75;5.00;;;;;;;3.45;100.00;101134.44;686504;28;1086;-63
2023/04/27 01:21:33;;;;;;;7.53;4.75;;;;;;;3.46;100.00;101131.03;689795;28;4471;-63
2023/04/27 01:21:53;;;;;;;7.53;4.57;;;;;;;3.45;100.00;101125.00;685363;28;1481;-63
2023/04/27 01:22:14;;;;;;;7.88;4.60;;;;;;;3.47;100.00;101130.19;686264;28;1229;-63
2023/04/27 01:22:34;;;;;;;8.07;4.30;;;;;;;3.47;100.00;101137.97;685708;28;1119;-63
2023/04/27 01:22:55;;;;;;;7.90;4.60;;;;;;;3.44;100.00;101130.97;686524;28;1482;-63
2023/04/27 01:23:16;;;;;;;8.70;4.85;;;;;;;3.44;100.00;101130.13;689129;28;901;-63
2023/04/27 01:23:37;;;;;;;8.10;4.45;;;;;;;3.44;100.00;101124.94;688515;28;5335;-63
2023/04/27 01:23:57;;;;;;;9.07;4.80;;;;;;;3.45;100.00;101134.44;688341;28;1673;-63
2023/04/27 01:24:17;;;;;;;8.40;4.73;;;;;;;3.45;100.00;101126.66;689087;28;1239;-63
2023/04/27 01:24:38;;;;;;;8.45;4.72;;;;;;;3.41;100.00;101128.31;687539;28;4430;-63
2023/04/27 01:24:59;;;;;;;7.28;4.47;;;;;;;3.39;100.00;101125.66;682951;28;1675;-63
2023/04/27 01:25:19;;;;;;;8.70;4.90;;;;;;;3.41;100.00;101131.75;681040;28;992;-63
2023/04/27 01:25:40;;;;;;;8.55;4.95;;;;;;;3.40;100.00;101122.22;684771;28;750;-63
2023/04/27 01:26:00;;;;;;;6.97;4.90;;;;;;;3.41;100.00;101128.31;683622;28;1540;-63
2023/04/27 01:26:21;;;;;;;7.22;4.57;;;;;;;3.41;100.00;101126.59;682845;28;1297;-63
2023/04/27 01:26:41;;;;;;;8.65;4.50;;;;;;;3.41;100.00;101126.59;685194;28;817;-63
2023/04/27 01:27:03;;;;;;;10.07;4.82;;;;;;;3.40;100.00;101130.00;688741;28;1575;-63
2023/04/27 01:27:24;;;;;;;7.93;5.03;;;;;;;3.40;100.00;101118.78;689665;28;1606;-63
2023/04/27 01:27:44;;;;;;;8.57;5.00;;;;;;;3.41;100.00;101128.31;686066;28;4598;-63
2023/04/27 01:28:05;;;;;;;10.70;5.17;;;;;;;3.40;100.00;101122.22;687258;28;1074;-63
2023/04/27 01:28:25;;;;;;;8.90;4.77;;;;;;;3.39;100.00;101123.09;692129;28;869;-64
2023/04/27 01:28:45;;;;;;;8.07;5.10;;;;;;;3.40;100.00;101124.81;691558;28;857;-63
2023/04/27 01:29:06;;;;;;;8.10;4.63;;;;;;;3.38;100.00;101123.91;687398;28;1572;-63
2023/04/27 01:29:26;;;;;;;8.02;4.55;;;;;;;3.39;100.00;101122.19;686137;28;1312;-63
2023/04/27 01:29:47;;;;;;;8.23;4.70;;;;;;;3.40;100.00;101126.53;684320;28;1242;-63
2023/04/27 01:30:07;;;;;;;9.63;5.20;;;;;;;3.38;100.00;101123.03;683546;28;1677;-63
2023/04/27 01:30:28;;;;;;;9.90;5.20;;;;;;;3.35;100.00;101123.81;687624;28;4504;-63
2023/04/27 01:30:49;;;;;;;8.70;5.00;;;;;;;3.33;100.00;101125.47;685481;28;1590;-63
2023/04/27 01:31:10;;;;;;;8.50;4.90;;;;;;;3.35;100.00;101122.91;682450;28;1985;-63
2023/04/27 01:31:30;;;;;;;8.57;4.75;;;;;;;3.34;100.00;101122.06;680392;28;1030;-63
2023/04/27 01:31:51;;;;;;;8.57;4.97;;;;;;;3.34;100.00;101128.94;679130;28;1631;-64
2023/04/27 01:32:11;;;;;;;9.23;5.30;;;;;;;3.33;100.00;101122.88;678211;29;1294;-63
2023/04/27 01:32:32;;;;;;;8.83;4.90;;;;;;;3.32;100.00;101123.69;680547;29;909;-63
2023/04/27 01:32:52;;;;;;;8.93;5.03;;;;;;;3.32;100.00;101122.84;679819;28;1511;-63
2023/04/27 01:33:13;;;;;;;9.27;4.80;;;;;;;3.31;100.00;101119.38;683829;28;786;-63
2023/04/27 01:33:33;;;;;;;9.05;4.75;;;;;;;3.31;100.00;101123.66;684866;28;4345;-64
2023/04/27 01:33:54;;;;;;;8.47;4.87;;;;;;;3.31;100.00;101121.97;680351;28;1750;-63
2023/04/27 01:34:14;;;;;;;8.77;5.05;;;;;;;3.32;100.00;101128.00;680505;29;933;-63
2023/04/27 01:34:35;;;;;;;8.23;4.87;;;;;;;3.32;100.00;101122.84;678941;29;984;-63
2023/04/27 01:34:55;;;;;;;8.93;5.05;;;;;;;3.31;100.00;101124.53;679275;28;1526;-63
2023/04/27 01:35:19;;;;;;;8.52;5.53;;;;;;;3.31;100.00;101127.13;682320;28;1288;-63
2023/04/27 01:35:39;;;;;;;8.13;5.23;;;;;;;3.29;100.00;101122.75;687077;28;1229;-63
2023/04/27 01:35:59;;;;;;;8.43;5.10;;;;;;;3.28;100.00;101119.28;687593;28;1113;-63
2023/04/27 01:36:21;;;;;;;8.88;4.82;;;;;;;3.29;100.00;101126.19;689311;28;1240;-63
2023/04/27 01:36:42;;;;;;;8.37;4.93;;;;;;;3.31;100.00;101129.72;681876;28;4279;-63
2023/04/27 01:37:02;;;;;;;7.97;4.55;;;;;;;3.32;100.00;101122.84;682634;28;1585;-63
2023/04/27 01:37:23;;;;;;;8.30;4.93;;;;;;;3.30;100.00;101127.94;686771;28;1492;-63
2023/04/27 01:37:44;;;;;;;9.05;5.13;;;;;;;3.29;100.00;101126.19;685543;28;896;-63
2023/04/27 01:38:05;;;;;;;10.98;5.15;;;;;;;3.30;100.00;101124.50;685389;28;1601;-63
2023/04/27 01:38:26;;;;;;;10.52;5.07;;;;;;;3.29;100.00;101126.19;685759;28;1319;-63
2023/04/27 01:38:46;;;;;;;9.55;5.60;;;;;;;3.30;100.00;101125.38;688868;28;1067;-63
2023/04/27 01:39:08;;;;;;;8.80;5.23;;;;;;;3.31;100.00;101128.81;688012;28;1590;-63
2023/04/27 01:39:29;;;;;;;8.40;4.93;;;;;;;3.31;100.00;101121.97;688001;28;4364;-63
2023/04/27 01:39:49;;;;;;;8.48;5.10;;;;;;;3.31;100.00;101129.72;686980;28;1605;-63
2023/04/27 01:40:10;;;;;;;9.13;4.83;;;;;;;3.28;100.00;101127.03;688447;28;1167;-63